Angola, Indiana
Current Conditions -  °F | °C
As of 5:15 PM on Friday 24 Oct 2014 (Local Time) from KANQ Reporting Station
NA  
Wind Chill: 61°   Ceiling: NA
Heat Index: 61°   Visibility: NA
Dew Point: 50°   Wind: 5mph
Humidity: 68%   Direction: 210°SSW
Pressure: 29.98"   Gusts: NA
Location:  41.63°N, 85°W
Report Text: KANQ 242115Z AUTO 21004KT 16/10 A2998 RMK
Loading
Personal Weather Stations






























Interactive Weather Map
Tropical Storm Tracking
New forecast layout! Learn more

10-Day Weather Forecast

Advertisements
Track Severe Weather on mobile